sensor_id;sensor_type;location;lat;lon;timestamp;pressure;altitude;pressure_sealevel;temperature;humidity
3598;BME280;1813;52.016;8.714;2024-01-15T00:01:54;-16261.94;;;-139.71;100.00
3598;BME280;1813;52.016;8.714;2024-01-15T00:04:30;-16261.94;;;-139.71;100.00
3598;BME280;1813;52.016;8.714;2024-01-15T00:07:04;-16261.94;;;-139.71;100.00
3598;BME280;1813;52.016;8.714;2024-01-15T00:09:37;-16261.94;;;-139.71;100.00
3598;BME280;1813;52.016;8.714;2024-01-15T00:12:10;-16261.94;;;-139.71;100.00
3598;BME280;1813;52.016;8.714;2024-01-15T00:14:43;-16261.94;;;-139.71;100.00
3598;BME280;1813;52.016;8.714;2024-01-15T00:17:17;-16261.94;;;-139.71;100.00
3598;BME280;1813;52.016;8.714;2024-01-15T00:19:53;-16261.94;;;-139.71;100.00
3598;BME280;1813;52.016;8.714;2024-01-15T00:22:26;-16261.94;;;-139.71;100.00
3598;BME280;1813;52.016;8.714;2024-01-15T00:24:59;-16261.94;;;-139.71;100.00
3598;BME280;1813;52.016;8.714;2024-01-15T00:27:33;-16261.94;;;-139.71;100.00
3598;BME280;1813;52.016;8.714;2024-01-15T00:30:07;-16261.94;;;-139.71;100.00
3598;BME280;1813;52.016;8.714;2024-01-15T00:32:40;-16261.94;;;-139.71;100.00
3598;BME280;1813;52.016;8.714;2024-01-15T00:35:16;-16261.94;;;-139.71;100.00
3598;BME280;1813;52.016;8.714;2024-01-15T00:37:49;-16261.94;;;-139.71;100.00
3598;BME280;1813;52.016;8.714;2024-01-15T00:40:23;-16261.94;;;-139.71;100.00
3598;BME280;1813;52.016;8.714;2024-01-15T00:42:56;-16261.94;;;-139.71;100.00
3598;BME280;1813;52.016;8.714;2024-01-15T00:45:29;-16261.94;;;-139.71;100.00
3598;BME280;1813;52.016;8.714;2024-01-15T00:48:03;-16261.94;;;-139.71;100.00
3598;BME280;1813;52.016;8.714;2024-01-15T00:50:39;-16261.94;;;-139.71;100.00
3598;BME280;1813;52.016;8.714;2024-01-15T00:53:13;-16261.94;;;-139.71;100.00
3598;BME280;1813;52.016;8.714;2024-01-15T00:55:46;-16261.94;;;-139.71;100.00
3598;BME280;1813;52.016;8.714;2024-01-15T00:58:19;-16261.94;;;-139.71;100.00
3598;BME280;1813;52.016;8.714;2024-01-15T01:00:53;-16261.94;;;-139.71;100.00
3598;BME280;1813;52.016;8.714;2024-01-15T01:03:26;-16261.94;;;-139.71;100.00
3598;BME280;1813;52.016;8.714;2024-01-15T01:06:02;-16261.94;;;-139.71;100.00
3598;BME280;1813;52.016;8.714;2024-01-15T01:08:35;-16261.94;;;-139.71;100.00
3598;BME280;1813;52.016;8.714;2024-01-15T01:11:12;-16261.94;;;-139.71;100.00
3598;BME280;1813;52.016;8.714;2024-01-15T01:13:46;-16261.94;;;-139.71;99.84
3598;BME280;1813;52.016;8.714;2024-01-15T01:16:19;-16261.94;;;-139.71;99.72
3598;BME280;1813;52.016;8.714;2024-01-15T01:18:52;-16261.94;;;-139.71;99.34
3598;BME280;1813;52.016;8.714;2024-01-15T01:21:28;-16261.94;;;-139.71;99.23
3598;BME280;1813;52.016;8.714;2024-01-15T01:24:01;-16261.94;;;-139.71;99.16
3598;BME280;1813;52.016;8.714;2024-01-15T01:26:35;-16261.94;;;-139.71;98.80
3598;BME280;1813;52.016;8.714;2024-01-15T01:29:08;-16261.94;;;-139.71;98.52
3598;BME280;1813;52.016;8.714;2024-01-15T01:31:44;-16261.94;;;-139.71;98.52
3598;BME280;1813;52.016;8.714;2024-01-15T01:34:17;-16261.94;;;-139.71;98.52
3598;BME280;1813;52.016;8.714;2024-01-15T01:36:53;-16261.94;;;-139.71;98.26
3598;BME280;1813;52.016;8.714;2024-01-15T01:39:27;-16261.94;;;-139.71;98.04
3598;BME280;1813;52.016;8.714;2024-01-15T01:42:00;-16261.94;;;-139.71;97.65
3598;BME280;1813;52.016;8.714;2024-01-15T01:44:33;-16261.94;;;-139.71;97.65
3598;BME280;1813;52.016;8.714;2024-01-15T01:47:07;-16261.94;;;-139.71;97.31
3598;BME280;1813;52.016;8.714;2024-01-15T01:49:41;-16261.94;;;-139.71;97.24
3598;BME280;1813;52.016;8.714;2024-01-15T01:52:17;-16261.94;;;-139.71;96.96
3598;BME280;1813;52.016;8.714;2024-01-15T01:54:51;-16261.94;;;-139.71;96.48
3598;BME280;1813;52.016;8.714;2024-01-15T01:57:25;-16261.94;;;-139.71;96.33
3598;BME280;1813;52.016;8.714;2024-01-15T01:59:58;-16261.94;;;-139.71;96.07
3598;BME280;1813;52.016;8.714;2024-01-15T02:02:42;-16261.94;;;-139.71;95.81
3598;BME280;1813;52.016;8.714;2024-01-15T02:05:18;-16261.94;;;-139.71;95.62
3598;BME280;1813;52.016;8.714;2024-01-15T02:07:54;-16261.94;;;-139.71;95.55
3598;BME280;1813;52.016;8.714;2024-01-15T02:10:28;-16261.94;;;-139.71;95.57
3598;BME280;1813;52.016;8.714;2024-01-15T02:13:02;-16261.94;;;-139.71;95.20
3598;BME280;1813;52.016;8.714;2024-01-15T02:15:35;-16261.94;;;-139.71;95.42
3598;BME280;1813;52.016;8.714;2024-01-15T02:18:08;-16261.94;;;-139.71;95.31
3598;BME280;1813;52.016;8.714;2024-01-15T02:20:42;-16261.94;;;-139.71;95.34
3598;BME280;1813;52.016;8.714;2024-01-15T02:23:18;-16261.94;;;-139.71;95.20
3598;BME280;1813;52.016;8.714;2024-01-15T02:25:51;-16261.94;;;-139.71;95.34
3598;BME280;1813;52.016;8.714;2024-01-15T02:28:24;-16261.94;;;-139.71;95.29
3598;BME280;1813;52.016;8.714;2024-01-15T02:30:57;-16261.94;;;-139.71;95.02
3598;BME280;1813;52.016;8.714;2024-01-15T02:33:31;-16261.94;;;-139.71;94.91
3598;BME280;1813;52.016;8.714;2024-01-15T02:36:05;-16261.94;;;-139.71;94.83
3598;BME280;1813;52.016;8.714;2024-01-15T02:38:41;-16261.94;;;-139.71;94.94
3598;BME280;1813;52.016;8.714;2024-01-15T02:41:14;-16261.94;;;-139.71;94.93
3598;BME280;1813;52.016;8.714;2024-01-15T02:43:48;-16261.94;;;-139.71;95.09
3598;BME280;1813;52.016;8.714;2024-01-15T02:46:21;-16261.94;;;-139.71;95.06
3598;BME280;1813;52.016;8.714;2024-01-15T02:48:54;-16261.94;;;-139.71;95.08
3598;BME280;1813;52.016;8.714;2024-01-15T02:51:27;-16261.94;;;-139.71;95.21
3598;BME280;1813;52.016;8.714;2024-01-15T02:54:03;-16261.94;;;-139.71;95.34
3598;BME280;1813;52.016;8.714;2024-01-15T02:56:37;-16261.94;;;-139.71;95.24
3598;BME280;1813;52.016;8.714;2024-01-15T02:59:10;-16261.94;;;-139.71;95.31
3598;BME280;1813;52.016;8.714;2024-01-15T03:01:43;-16261.94;;;-139.71;95.36
3598;BME280;1813;52.016;8.714;2024-01-15T03:04:17;-16261.94;;;-139.71;95.47
3598;BME280;1813;52.016;8.714;2024-01-15T03:06:50;-16261.94;;;-139.71;95.66
3598;BME280;1813;52.016;8.714;2024-01-15T03:09:26;-16261.94;;;-139.71;95.69
3598;BME280;1813;52.016;8.714;2024-01-15T03:11:59;-16261.94;;;-139.71;95.68
3598;BME280;1813;52.016;8.714;2024-01-15T03:14:32;-16261.94;;;-139.71;95.70
3598;BME280;1813;52.016;8.714;2024-01-15T03:17:06;-16261.94;;;-139.71;95.67
3598;BME280;1813;52.016;8.714;2024-01-15T03:19:40;-16261.94;;;-139.71;95.49
3598;BME280;1813;52.016;8.714;2024-01-15T03:22:13;-16261.94;;;-139.71;95.53
3598;BME280;1813;52.016;8.714;2024-01-15T03:24:49;-16261.94;;;-139.71;95.33
3598;BME280;1813;52.016;8.714;2024-01-15T03:27:22;-16261.94;;;-139.71;95.13
3598;BME280;1813;52.016;8.714;2024-01-15T03:29:56;-16261.94;;;-139.71;95.00
3598;BME280;1813;52.016;8.714;2024-01-15T03:32:29;-16261.94;;;-139.71;95.54
3598;BME280;1813;52.016;8.714;2024-01-15T03:35:03;-16261.94;;;-139.71;95.39
3598;BME280;1813;52.016;8.714;2024-01-15T03:37:36;-16261.94;;;-139.71;95.38
3598;BME280;1813;52.016;8.714;2024-01-15T03:40:12;-16261.94;;;-139.71;95.70
3598;BME280;1813;52.016;8.714;2024-01-15T03:42:46;-16261.94;;;-139.71;95.91
3598;BME280;1813;52.016;8.714;2024-01-15T03:45:19;-16261.94;;;-139.71;96.05
3598;BME280;1813;52.016;8.714;2024-01-15T03:47:52;-16261.94;;;-139.71;95.90
3598;BME280;1813;52.016;8.714;2024-01-15T03:50:26;-16261.94;;;-139.71;95.94
3598;BME280;1813;52.016;8.714;2024-01-15T03:53:02;-16261.94;;;-139.71;96.00
3598;BME280;1813;52.016;8.714;2024-01-15T03:55:39;-16261.94;;;-139.71;96.20
3598;BME280;1813;52.016;8.714;2024-01-15T03:58:12;-16261.94;;;-139.71;96.48
3598;BME280;1813;52.016;8.714;2024-01-15T04:00:46;-16261.94;;;-139.71;96.51
3598;BME280;1813;52.016;8.714;2024-01-15T04:03:19;-16261.94;;;-139.71;96.45
3598;BME280;1813;52.016;8.714;2024-01-15T04:05:52;-16261.94;;;-139.71;96.58
3598;BME280;1813;52.016;8.714;2024-01-15T04:08:27;-16261.94;;;-139.71;96.67
3598;BME280;1813;52.016;8.714;2024-01-15T04:11:03;-16261.94;;;-139.71;97.14
3598;BME280;1813;52.016;8.714;2024-01-15T04:13:36;-16261.94;;;-139.71;96.99
3598;BME280;1813;52.016;8.714;2024-01-15T04:16:10;-16261.94;;;-139.71;96.63
3598;BME280;1813;52.016;8.714;2024-01-15T04:18:43;-16261.94;;;-139.71;96.46
3598;BME280;1813;52.016;8.714;2024-01-15T04:21:17;-16261.94;;;-139.71;96.31
3598;BME280;1813;52.016;8.714;2024-01-15T04:23:50;-16261.94;;;-139.71;96.02
3598;BME280;1813;52.016;8.714;2024-01-15T04:26:26;-16261.94;;;-139.71;95.94
3598;BME280;1813;52.016;8.714;2024-01-15T04:28:59;-16261.94;;;-139.71;95.73
3598;BME280;1813;52.016;8.714;2024-01-15T04:31:32;-16261.94;;;-139.71;95.75
3598;BME280;1813;52.016;8.714;2024-01-15T04:34:06;-16261.94;;;-139.71;95.65
3598;BME280;1813;52.016;8.714;2024-01-15T04:36:39;-16261.94;;;-139.71;95.57
3598;BME280;1813;52.016;8.714;2024-01-15T04:39:13;-16261.94;;;-139.71;95.77
3598;BME280;1813;52.016;8.714;2024-01-15T04:41:49;-16261.94;;;-139.71;95.47
3598;BME280;1813;52.016;8.714;2024-01-15T04:44:22;-16261.94;;;-139.71;95.80
3598;BME280;1813;52.016;8.714;2024-01-15T04:46:55;-16261.94;;;-139.71;95.67
3598;BME280;1813;52.016;8.714;2024-01-15T04:49:30;-16261.94;;;-139.71;95.67
3598;BME280;1813;52.016;8.714;2024-01-15T04:52:06;-16261.94;;;-139.71;95.92
3598;BME280;1813;52.016;8.714;2024-01-15T04:54:40;-16261.94;;;-139.71;95.84
3598;BME280;1813;52.016;8.714;2024-01-15T04:57:16;-16261.94;;;-139.71;95.80
3598;BME280;1813;52.016;8.714;2024-01-15T04:59:50;-16261.94;;;-139.71;95.69
3598;BME280;1813;52.016;8.714;2024-01-15T05:02:23;-16261.94;;;-139.71;95.70
3598;BME280;1813;52.016;8.714;2024-01-15T05:04:56;-16261.94;;;-139.71;95.73
3598;BME280;1813;52.016;8.714;2024-01-15T05:07:29;-16261.94;;;-139.71;95.74
3598;BME280;1813;52.016;8.714;2024-01-15T05:10:03;-16261.94;;;-139.71;95.80
3598;BME280;1813;52.016;8.714;2024-01-15T05:12:43;-16261.94;;;-139.71;95.90
3598;BME280;1813;52.016;8.714;2024-01-15T05:15:16;-16261.94;;;-139.71;95.98
3598;BME280;1813;52.016;8.714;2024-01-15T05:17:50;-16261.94;;;-139.71;95.84
3598;BME280;1813;52.016;8.714;2024-01-15T05:20:23;-16261.94;;;-139.71;96.15
3598;BME280;1813;52.016;8.714;2024-01-15T05:22:56;-16261.94;;;-139.71;96.13
3598;BME280;1813;52.016;8.714;2024-01-15T05:25:30;-16261.94;;;-139.71;96.02
3598;BME280;1813;52.016;8.714;2024-01-15T05:28:06;-16261.94;;;-139.71;96.15
3598;BME280;1813;52.016;8.714;2024-01-15T05:30:39;-16261.94;;;-139.71;96.16
3598;BME280;1813;52.016;8.714;2024-01-15T05:33:12;-16261.94;;;-139.71;96.12
3598;BME280;1813;52.016;8.714;2024-01-15T05:35:46;-16261.94;;;-139.71;96.48
3598;BME280;1813;52.016;8.714;2024-01-15T05:38:20;-16261.94;;;-139.71;96.37
3598;BME280;1813;52.016;8.714;2024-01-15T05:40:54;-16261.94;;;-139.71;96.48
3598;BME280;1813;52.016;8.714;2024-01-15T05:43:30;-16261.94;;;-139.71;96.71
3598;BME280;1813;52.016;8.714;2024-01-15T05:46:03;-16261.94;;;-139.71;96.64
3598;BME280;1813;52.016;8.714;2024-01-15T05:48:37;-16261.94;;;-139.71;96.62
3598;BME280;1813;52.016;8.714;2024-01-15T05:51:13;-16261.94;;;-139.71;96.53
3598;BME280;1813;52.016;8.714;2024-01-15T05:53:46;-16261.94;;;-139.71;96.58
3598;BME280;1813;52.016;8.714;2024-01-15T05:56:19;-16261.94;;;-139.71;96.73
3598;BME280;1813;52.016;8.714;2024-01-15T05:58:57;-16261.94;;;-139.71;96.81
3598;BME280;1813;52.016;8.714;2024-01-15T06:01:30;-16261.94;;;-139.71;96.86
3598;BME280;1813;52.016;8.714;2024-01-15T06:04:03;-16261.94;;;-139.71;96.99
3598;BME280;1813;52.016;8.714;2024-01-15T06:06:37;-16261.94;;;-139.71;97.13
3598;BME280;1813;52.016;8.714;2024-01-15T06:09:12;-16261.94;;;-139.71;97.17
3598;BME280;1813;52.016;8.714;2024-01-15T06:11:46;-16261.94;;;-139.71;97.22
3598;BME280;1813;52.016;8.714;2024-01-15T06:14:22;-16261.94;;;-139.71;97.22
3598;BME280;1813;52.016;8.714;2024-01-15T06:16:55;-16261.94;;;-139.71;97.37
3598;BME280;1813;52.016;8.714;2024-01-15T06:19:28;-16261.94;;;-139.71;97.29
3598;BME280;1813;52.016;8.714;2024-01-15T06:22:02;-16261.94;;;-139.71;97.56
3598;BME280;1813;52.016;8.714;2024-01-15T06:24:35;-16261.94;;;-139.71;97.60
3598;BME280;1813;52.016;8.714;2024-01-15T06:27:08;-16261.94;;;-139.71;97.67
3598;BME280;1813;52.016;8.714;2024-01-15T06:29:45;-16261.94;;;-139.71;97.59
3598;BME280;1813;52.016;8.714;2024-01-15T06:32:22;-16261.94;;;-139.71;97.45
3598;BME280;1813;52.016;8.714;2024-01-15T06:34:57;-16261.94;;;-139.71;97.47
3598;BME280;1813;52.016;8.714;2024-01-15T06:37:37;-16261.94;;;-139.71;97.80
3598;BME280;1813;52.016;8.714;2024-01-15T06:40:14;-16261.94;;;-139.71;97.79
3598;BME280;1813;52.016;8.714;2024-01-15T06:42:51;-16261.94;;;-139.71;97.80
3598;BME280;1813;52.016;8.714;2024-01-15T06:45:27;-16261.94;;;-139.71;97.88
3598;BME280;1813;52.016;8.714;2024-01-15T06:48:01;-16261.94;;;-139.71;97.76
3598;BME280;1813;52.016;8.714;2024-01-15T06:50:35;-16261.94;;;-139.71;97.85
3598;BME280;1813;52.016;8.714;2024-01-15T06:53:08;-16261.94;;;-139.71;97.81
3598;BME280;1813;52.016;8.714;2024-01-15T06:55:44;-16261.94;;;-139.71;97.83
3598;BME280;1813;52.016;8.714;2024-01-15T06:58:19;-16261.94;;;-139.71;97.98
3598;BME280;1813;52.016;8.714;2024-01-15T07:00:55;-16261.94;;;-139.71;98.04
3598;BME280;1813;52.016;8.714;2024-01-15T07:03:28;-16261.94;;;-139.71;98.13
3598;BME280;1813;52.016;8.714;2024-01-15T07:06:03;-16261.94;;;-139.71;98.06
3598;BME280;1813;52.016;8.714;2024-01-15T07:08:36;-16261.94;;;-139.71;98.09
3598;BME280;1813;52.016;8.714;2024-01-15T07:11:09;-16261.94;;;-139.71;98.24
3598;BME280;1813;52.016;8.714;2024-01-15T07:13:43;-16261.94;;;-139.71;98.34
3598;BME280;1813;52.016;8.714;2024-01-15T07:16:19;-16261.94;;;-139.71;98.46
3598;BME280;1813;52.016;8.714;2024-01-15T07:18:53;-16261.94;;;-139.71;98.66
3598;BME280;1813;52.016;8.714;2024-01-15T07:21:29;-16261.94;;;-139.71;98.86
3598;BME280;1813;52.016;8.714;2024-01-15T07:24:03;-16261.94;;;-139.71;98.62
3598;BME280;1813;52.016;8.714;2024-01-15T07:26:42;-16261.94;;;-139.71;98.77
3598;BME280;1813;52.016;8.714;2024-01-15T07:29:15;-16261.94;;;-139.71;99.02
3598;BME280;1813;52.016;8.714;2024-01-15T07:31:52;-16261.94;;;-139.71;99.11
3598;BME280;1813;52.016;8.714;2024-01-15T07:34:25;-16261.94;;;-139.71;99.28
3598;BME280;1813;52.016;8.714;2024-01-15T07:36:58;-16261.94;;;-139.71;99.27
3598;BME280;1813;52.016;8.714;2024-01-15T07:39:32;-16261.94;;;-139.71;99.40
3598;BME280;1813;52.016;8.714;2024-01-15T07:42:06;-16261.94;;;-139.71;99.31
3598;BME280;1813;52.016;8.714;2024-01-15T07:44:40;-16261.94;;;-139.71;99.18
3598;BME280;1813;52.016;8.714;2024-01-15T07:47:16;-16261.94;;;-139.71;99.09
3598;BME280;1813;52.016;8.714;2024-01-15T07:49:49;-16261.94;;;-139.71;98.99
3598;BME280;1813;52.016;8.714;2024-01-15T07:52:22;-16261.94;;;-139.71;98.99
3598;BME280;1813;52.016;8.714;2024-01-15T07:54:55;-16261.94;;;-139.71;98.82
3598;BME280;1813;52.016;8.714;2024-01-15T07:57:29;-16261.94;;;-139.71;98.70
3598;BME280;1813;52.016;8.714;2024-01-15T08:00:04;-16261.94;;;-139.71;98.51
3598;BME280;1813;52.016;8.714;2024-01-15T08:02:42;-16261.94;;;-139.71;98.62
3598;BME280;1813;52.016;8.714;2024-01-15T08:05:17;-16261.94;;;-139.71;98.53
3598;BME280;1813;52.016;8.714;2024-01-15T08:07:51;-16261.94;;;-139.71;98.54
3598;BME280;1813;52.016;8.714;2024-01-15T08:10:24;-16261.94;;;-139.71;98.41
3598;BME280;1813;52.016;8.714;2024-01-15T08:12:59;-16261.94;;;-139.71;98.58
3598;BME280;1813;52.016;8.714;2024-01-15T08:15:32;-16261.94;;;-139.71;98.39
3598;BME280;1813;52.016;8.714;2024-01-15T08:18:08;-16261.94;;;-139.71;98.41
3598;BME280;1813;52.016;8.714;2024-01-15T08:20:42;-16261.94;;;-139.71;98.24
3598;BME280;1813;52.016;8.714;2024-01-15T08:23:15;-16261.94;;;-139.71;98.51
3598;BME280;1813;52.016;8.714;2024-01-15T08:25:48;-16261.94;;;-139.71;98.30
3598;BME280;1813;52.016;8.714;2024-01-15T08:28:22;-16261.94;;;-139.71;98.51
3598;BME280;1813;52.016;8.714;2024-01-15T08:30:55;-16261.94;;;-139.71;98.41
3598;BME280;1813;52.016;8.714;2024-01-15T08:33:31;-16261.94;;;-139.71;98.23
3598;BME280;1813;52.016;8.714;2024-01-15T08:36:04;-16261.94;;;-139.71;98.20
3598;BME280;1813;52.016;8.714;2024-01-15T08:38:38;-16261.94;;;-139.71;98.08
3598;BME280;1813;52.016;8.714;2024-01-15T08:41:11;-16261.94;;;-139.71;97.98
3598;BME280;1813;52.016;8.714;2024-01-15T08:43:44;-16261.94;;;-139.71;97.90
3598;BME280;1813;52.016;8.714;2024-01-15T08:46:18;-16261.94;;;-139.71;98.03
3598;BME280;1813;52.016;8.714;2024-01-15T08:48:54;-16261.94;;;-139.71;98.31
3598;BME280;1813;52.016;8.714;2024-01-15T08:51:27;-16261.94;;;-139.71;98.40
3598;BME280;1813;52.016;8.714;2024-01-15T08:54:01;-16261.94;;;-139.71;98.63
3598;BME280;1813;52.016;8.714;2024-01-15T08:56:34;-16261.94;;;-139.71;98.77
3598;BME280;1813;52.016;8.714;2024-01-15T08:59:07;-16261.94;;;-139.71;98.81
3598;BME280;1813;52.016;8.714;2024-01-15T09:01:41;-16261.94;;;-139.71;99.08
3598;BME280;1813;52.016;8.714;2024-01-15T09:04:17;-16261.94;;;-139.71;99.10
3598;BME280;1813;52.016;8.714;2024-01-15T09:06:50;-16261.94;;;-139.71;99.00
3598;BME280;1813;52.016;8.714;2024-01-15T09:09:24;-16261.94;;;-139.71;99.21
3598;BME280;1813;52.016;8.714;2024-01-15T09:11:57;-16261.94;;;-139.71;99.26
3598;BME280;1813;52.016;8.714;2024-01-15T09:14:31;-16261.94;;;-139.71;99.23
3598;BME280;1813;52.016;8.714;2024-01-15T09:17:04;-16261.94;;;-139.71;99.26
3598;BME280;1813;52.016;8.714;2024-01-15T09:19:41;-16261.94;;;-139.71;99.35
3598;BME280;1813;52.016;8.714;2024-01-15T09:22:14;-16261.94;;;-139.71;99.28
3598;BME280;1813;52.016;8.714;2024-01-15T09:24:48;-16261.94;;;-139.71;99.14
3598;BME280;1813;52.016;8.714;2024-01-15T09:27:22;-16261.94;;;-139.71;98.91
3598;BME280;1813;52.016;8.714;2024-01-15T09:29:56;-16261.94;;;-139.71;98.91
3598;BME280;1813;52.016;8.714;2024-01-15T09:32:30;-16261.94;;;-139.71;98.89
3598;BME280;1813;52.016;8.714;2024-01-15T09:35:06;-16261.94;;;-139.71;98.79
3598;BME280;1813;52.016;8.714;2024-01-15T09:37:41;-16261.94;;;-139.71;99.13
3598;BME280;1813;52.016;8.714;2024-01-15T09:40:15;-16261.94;;;-139.71;99.59
3598;BME280;1813;52.016;8.714;2024-01-15T09:42:48;-16261.94;;;-139.71;99.83
3598;BME280;1813;52.016;8.714;2024-01-15T09:45:23;-16261.94;;;-139.71;100.00
3598;BME280;1813;52.016;8.714;2024-01-15T09:47:56;-16261.94;;;-139.71;100.00
3598;BME280;1813;52.016;8.714;2024-01-15T09:50:32;-16261.94;;;-139.71;100.00
3598;BME280;1813;52.016;8.714;2024-01-15T09:53:06;-16261.94;;;-139.71;100.00
3598;BME280;1813;52.016;8.714;2024-01-15T09:55:40;-16261.94;;;-139.71;100.00
3598;BME280;1813;52.016;8.714;2024-01-15T09:58:14;-16261.94;;;-139.71;100.00
3598;BME280;1813;52.016;8.714;2024-01-15T10:00:48;-16261.94;;;-139.71;100.00
3598;BME280;1813;52.016;8.714;2024-01-15T10:03:21;-16261.94;;;-139.71;100.00
3598;BME280;1813;52.016;8.714;2024-01-15T10:05:59;-16261.94;;;-139.71;100.00
3598;BME280;1813;52.016;8.714;2024-01-15T10:08:32;-16261.94;;;-139.71;100.00
3598;BME280;1813;52.016;8.714;2024-01-15T10:11:07;-16261.94;;;-139.71;100.00
3598;BME280;1813;52.016;8.714;2024-01-15T10:13:40;-16261.94;;;-139.71;100.00
3598;BME280;1813;52.016;8.714;2024-01-15T10:16:14;-16261.94;;;-139.71;100.00
3598;BME280;1813;52.016;8.714;2024-01-15T10:18:48;-16261.94;;;-139.71;100.00
3598;BME280;1813;52.016;8.714;2024-01-15T10:21:24;-16261.94;;;-139.71;100.00
3598;BME280;1813;52.016;8.714;2024-01-15T10:24:00;-16261.94;;;-139.71;99.89
3598;BME280;1813;52.016;8.714;2024-01-15T10:26:33;-16261.94;;;-139.71;99.91
3598;BME280;1813;52.016;8.714;2024-01-15T10:29:06;-16261.94;;;-139.71;99.73
3598;BME280;1813;52.016;8.714;2024-01-15T10:31:41;-16261.94;;;-139.71;99.51
3598;BME280;1813;52.016;8.714;2024-01-15T10:34:14;-16261.94;;;-139.71;99.58
3598;BME280;1813;52.016;8.714;2024-01-15T10:36:50;-16261.94;;;-139.71;99.38
3598;BME280;1813;52.016;8.714;2024-01-15T10:39:25;-16261.94;;;-139.71;99.31
3598;BME280;1813;52.016;8.714;2024-01-15T10:41:59;-16261.94;;;-139.71;98.90
3598;BME280;1813;52.016;8.714;2024-01-15T10:44:32;-16261.94;;;-139.71;98.89
3598;BME280;1813;52.016;8.714;2024-01-15T10:47:06;-16261.94;;;-139.71;98.78
3598;BME280;1813;52.016;8.714;2024-01-15T10:49:39;-16261.94;;;-139.71;98.40
3598;BME280;1813;52.016;8.714;2024-01-15T10:52:18;-16261.94;;;-139.71;98.25
3598;BME280;1813;52.016;8.714;2024-01-15T10:54:52;-16261.94;;;-139.71;98.08
3598;BME280;1813;52.016;8.714;2024-01-15T10:57:26;-16261.94;;;-139.71;97.73
3598;BME280;1813;52.016;8.714;2024-01-15T10:59:59;-16261.94;;;-139.71;97.57
3598;BME280;1813;52.016;8.714;2024-01-15T11:02:36;-16261.94;;;-139.71;97.13
3598;BME280;1813;52.016;8.714;2024-01-15T11:05:12;-16261.94;;;-139.71;97.24
3598;BME280;1813;52.016;8.714;2024-01-15T11:07:54;-16261.94;;;-139.71;96.88
3598;BME280;1813;52.016;8.714;2024-01-15T11:10:41;-16261.94;;;-139.71;96.72
3598;BME280;1813;52.016;8.714;2024-01-15T11:13:20;-16261.94;;;-139.71;96.51
3598;BME280;1813;52.016;8.714;2024-01-15T11:16:01;-16261.94;;;-139.71;96.38
3598;BME280;1813;52.016;8.714;2024-01-15T11:18:35;-16261.94;;;-139.71;96.17
3598;BME280;1813;52.016;8.714;2024-01-15T11:21:22;-16261.94;;;-139.71;95.40
3598;BME280;1813;52.016;8.714;2024-01-15T11:24:00;-16261.94;;;-139.71;95.41
3598;BME280;1813;52.016;8.714;2024-01-15T11:26:43;-16261.94;;;-139.71;95.36
3598;BME280;1813;52.016;8.714;2024-01-15T11:29:29;-16261.94;;;-139.71;95.03
3598;BME280;1813;52.016;8.714;2024-01-15T11:32:04;-16261.94;;;-139.71;95.09
3598;BME280;1813;52.016;8.714;2024-01-15T11:34:55;-16261.94;;;-139.71;94.68
3598;BME280;1813;52.016;8.714;2024-01-15T11:37:58;-16261.94;;;-139.71;94.61
3598;BME280;1813;52.016;8.714;2024-01-15T11:40:44;-16261.94;;;-139.71;94.18
3598;BME280;1813;52.016;8.714;2024-01-15T11:43:18;-16261.94;;;-139.71;94.18
3598;BME280;1813;52.016;8.714;2024-01-15T11:45:54;-16261.94;;;-139.71;93.71
3598;BME280;1813;52.016;8.714;2024-01-15T11:48:32;-16261.94;;;-139.71;93.64
3598;BME280;1813;52.016;8.714;2024-01-15T11:51:11;-16261.94;;;-139.71;93.31
3598;BME280;1813;52.016;8.714;2024-01-15T11:53:48;-16261.94;;;-139.71;93.22
3598;BME280;1813;52.016;8.714;2024-01-15T11:56:25;-16261.94;;;-139.71;92.86
3598;BME280;1813;52.016;8.714;2024-01-15T11:58:59;-16261.94;;;-139.71;92.92
3598;BME280;1813;52.016;8.714;2024-01-15T12:01:33;-16261.94;;;-139.71;92.99
3598;BME280;1813;52.016;8.714;2024-01-15T12:04:08;-16261.94;;;-139.71;92.87
3598;BME280;1813;52.016;8.714;2024-01-15T12:06:41;-16261.94;;;-139.71;92.90
3598;BME280;1813;52.016;8.714;2024-01-15T12:09:15;-16261.94;;;-139.71;92.95
3598;BME280;1813;52.016;8.714;2024-01-15T12:12:01;-16261.94;;;-139.71;93.00
3598;BME280;1813;52.016;8.714;2024-01-15T12:14:38;-16261.94;;;-139.71;92.85
3598;BME280;1813;52.016;8.714;2024-01-15T12:17:11;-16261.94;;;-139.71;92.76
3598;BME280;1813;52.016;8.714;2024-01-15T12:19:45;-16261.94;;;-139.71;92.76
3598;BME280;1813;52.016;8.714;2024-01-15T12:22:18;-16261.94;;;-139.71;92.76
3598;BME280;1813;52.016;8.714;2024-01-15T12:24:51;-16261.94;;;-139.71;92.53
3598;BME280;1813;52.016;8.714;2024-01-15T12:27:27;-16261.94;;;-139.71;92.56
3598;BME280;1813;52.016;8.714;2024-01-15T12:30:00;-16261.94;;;-139.71;92.20
3598;BME280;1813;52.016;8.714;2024-01-15T12:32:34;-16261.94;;;-139.71;91.73
3598;BME280;1813;52.016;8.714;2024-01-15T12:35:08;-16261.94;;;-139.71;91.38
3598;BME280;1813;52.016;8.714;2024-01-15T12:37:43;-16261.94;;;-139.71;91.32
3598;BME280;1813;52.016;8.714;2024-01-15T12:40:19;-16261.94;;;-139.71;91.09
3598;BME280;1813;52.016;8.714;2024-01-15T12:42:55;-16261.94;;;-139.71;90.96
3598;BME280;1813;52.016;8.714;2024-01-15T12:45:29;-16261.94;;;-139.71;91.22
3598;BME280;1813;52.016;8.714;2024-01-15T12:48:04;-16261.94;;;-139.71;91.26
3598;BME280;1813;52.016;8.714;2024-01-15T12:50:37;-16261.94;;;-139.71;91.17
3598;BME280;1813;52.016;8.714;2024-01-15T12:53:11;-16261.94;;;-139.71;91.29
3598;BME280;1813;52.016;8.714;2024-01-15T12:55:46;-16261.94;;;-139.71;91.26
3598;BME280;1813;52.016;8.714;2024-01-15T12:58:22;-16261.94;;;-139.71;91.55
3598;BME280;1813;52.016;8.714;2024-01-15T13:00:56;-16261.94;;;-139.71;92.01
3598;BME280;1813;52.016;8.714;2024-01-15T13:03:30;-16261.94;;;-139.71;92.03
3598;BME280;1813;52.016;8.714;2024-01-15T13:06:06;-16261.94;;;-139.71;92.08
3598;BME280;1813;52.016;8.714;2024-01-15T13:08:42;-16261.94;;;-139.71;92.07
3598;BME280;1813;52.016;8.714;2024-01-15T13:11:16;-16261.94;;;-139.71;92.26
3598;BME280;1813;52.016;8.714;2024-01-15T13:13:53;-16261.94;;;-139.71;92.42
3598;BME280;1813;52.016;8.714;2024-01-15T13:16:30;-16261.94;;;-139.71;92.82
3598;BME280;1813;52.016;8.714;2024-01-15T13:19:03;-16261.94;;;-139.71;92.81
3598;BME280;1813;52.016;8.714;2024-01-15T13:21:37;-16261.94;;;-139.71;92.89
3598;BME280;1813;52.016;8.714;2024-01-15T13:24:13;-16261.94;;;-139.71;93.04
3598;BME280;1813;52.016;8.714;2024-01-15T13:26:46;-16261.94;;;-139.71;93.26